Flight Track Log - Related Links

Times and Time Zones

All times are in EDT time to prevent confusion due to time zone crossing. See the DAL2001 flight status page for this flight to view local times or setup timezone preferences in your user account.

Time Position Orientation Groundspeed Altitude Reporting Facility
EDT Latitude Longitude Course Direction KTS MPH feet Rate Location/Type
Fri 06:26:00 AM 44.1207 -73.6027 195° South  Level Estimated
Fri 06:26:20 AM 44.2714 -73.1939 204° Southwest 300 345 9,400  Level Boston Center
Fri 06:27:00 AM 44.0326 -73.7142 198° South  Level Estimated
Fri 06:27:21 AM 44.1858 -73.2275 196° South 300 345 12,900  Level Boston Center
Fri 06:28:00 AM 43.9177 -73.6712 165° South  Level FlightAware Approximate
Fri 06:28:20 AM 44.0958 -73.2756 201° Southwest 325 374 14,200  Level Boston Center
Fri 06:29:00 AM 43.8302 -73.7832 192° South  Level Estimated
Fri 06:29:22 AM 44.0033 -73.3581 213° Southwest 373 429 15,900  Level Boston Center
Fri 06:30:00 AM 43.7425 -73.8948 204° Southwest  Level Estimated
Fri 06:30:21 AM 43.9047 -73.4428 212° Southwest 411 473 18,100  Level Boston Center
Fri 06:31:21 AM 43.7997 -73.5331 212° Southwest 440 506 20,100 1,934 Climbing Boston Center
Fri 06:32:22 AM 43.6947 -73.6231 212° Southwest 446 513 22,000 1,729 Climbing Boston Center
Fri 06:33:19 AM 43.5939 -73.7072 211° Southwest 461 531 23,500 1,513 Climbing Boston Center
Fri 06:34:21 AM 43.4822 -73.8022 212° Southwest 474 545 25,000 1,400 Climbing Boston Center
Fri 06:35:19 AM 43.3397 -73.8647 198° South 474 545 26,300 1,488 Climbing Boston Center
Fri 06:36:22 AM 43.2000 -73.8814 185° South 484 557 28,000 1,610 Climbing Boston Center
Fri 06:37:22 AM 43.0600 -73.8978 185° South 497 572 29,600 1,664 Climbing Boston Center
Fri 06:38:21 AM 42.9244 -73.9117 184° South 497 572 31,300 1,692 Climbing Boston Center
Fri 06:39:19 AM 42.7889 -73.9225 183° South 498 573 32,900 1,475 Climbing Boston Center
Fri 06:40:19 AM 42.6553 -73.9392 185° South 493 567 34,200 1,180 Climbing Boston Center
Fri 06:41:21 AM 42.5278 -73.9586 186° South 484 557 35,300 1,091 Climbing Boston Center
Fri 06:42:20 AM 42.3942 -73.9722 184° South 479 551 36,400 900 Climbing Boston Center
Fri 06:43:21 AM 42.2647 -73.9831 184° South 479 551 37,100 639 Climbing Boston Center
Fri 06:44:22 AM 42.1333 -73.9994 185° South 479 551 37,700 458 Climbing Boston Center
Fri 06:45:19 AM 42.0019 -74.0131 184° South 479 551 38,000 101 Climbing Boston Center
Fri 06:47:21 AM 41.7517 -74.0353 184° South 479 551 38,000  Level New York Center
Fri 06:48:21 AM 41.6222 -74.0483 184° South 479 551 38,000  Level New York Center
Fri 06:49:21 AM 41.4800 -74.0636 185° South 468 539 38,000  Level New York Center
Fri 06:50:21 AM 41.3486 -74.0792 185° South 468 539 38,000  Level New York Center
Fri 06:51:21 AM 41.2247 -74.1117 191° South 468 539 38,000  Level New York Center
Fri 06:52:21 AM 41.1408 -74.2067 220° Southwest 438 504 38,000  Level New York Center
Fri 06:53:21 AM 41.0558 -74.3289 227° Southwest 438 504 38,000  Level New York Center
Fri 06:54:21 AM 40.9750 -74.4511 229° Southwest 443 510 38,000  Level New York Center
Fri 06:55:21 AM 40.8942 -74.5731 229° Southwest 448 516 38,000  Level New York Center
Fri 06:56:21 AM 40.8131 -74.6944 229° Southwest 453 521 38,000  Level New York Center
Fri 06:57:21 AM 40.7322 -74.8103 227° Southwest 448 516 38,000 -50 Level New York Center
Fri 06:58:21 AM 40.6506 -74.9369 230° Southwest 448 516 37,900 -50 Descending New York Center
Fri 06:59:21 AM 40.5692 -75.0550 228° Southwest 448 516 37,900 50 Level New York Center
Fri 07:00:21 AM 40.4897 -75.1756 229° Southwest 443 510 38,000 50 Climbing New York Center
Fri 07:01:21 AM 40.4081 -75.2956 228° Southwest 443 510 38,000  Level New York Center
Fri 07:02:21 AM 40.3264 -75.4183 229° Southwest 443 510 38,000  Level New York Center
Fri 07:03:21 AM 40.2444 -75.5350 227° Southwest 443 510 38,000  Level New York Center
Fri 07:04:21 AM 40.1747 -75.6608 234° Southwest 443 510 38,000  Level New York Center
Fri 07:05:21 AM 40.1064 -75.7969 237° Southwest 443 510 38,000  Level New York Center
Fri 07:06:21 AM 40.0425 -75.9253 237° Southwest 437 503 38,000  Level New York Center
Fri 07:07:21 AM 39.9786 -76.0533 237° Southwest 431 496 38,000  Level New York Center
Fri 07:08:21 AM 39.9122 -76.1836 236° Southwest 431 496 38,000  Level New York Center
Fri 07:09:21 AM 39.8328 -76.3208 233° Southwest 438 504 38,000  Level New York Center
Fri 07:10:46 AM 39.7356 -76.4739 230° Southwest 431 496 38,000  Level Washington Center
Fri 07:11:46 AM 39.6469 -76.5994 228° Southwest 431 496 38,000  Level Washington Center
Fri 07:12:44 AM 39.5667 -76.7194 229° Southwest 431 496 38,000  Level Washington Center
Fri 07:13:45 AM 39.4883 -76.8339 228° Southwest 431 496 38,000  Level Washington Center
Fri 07:14:46 AM 39.4081 -76.9506 228° Southwest 431 496 38,000  Level Washington Center
Fri 07:15:46 AM 39.3336 -77.0647 230° Southwest 436 502 38,000  Level Washington Center
Fri 07:16:44 AM 39.2553 -77.1783 228° Southwest 431 496 38,000  Level Washington Center
Fri 07:17:45 AM 39.1911 -77.2975 235° Southwest 426 490 38,000  Level Washington Center
Fri 07:18:45 AM 39.1578 -77.4333 252° West 402 463 38,000  Level Washington Center
Fri 07:19:44 AM 39.1222 -77.5714 252° West 407 468 38,000  Level Washington Center
Fri 07:20:44 AM 39.0844 -77.7094 251° West 412 474 38,000  Level Washington Center
Fri 07:21:45 AM 39.0428 -77.8286 246° West 412 474 38,000  Level Washington Center
Fri 07:22:44 AM 38.9528 -77.9486 226° Southwest 421 484 38,000  Level Washington Center
Fri 07:23:44 AM 38.8697 -78.0367 220° Southwest 421 484 38,000  Level Washington Center
Fri 07:24:45 AM 38.7803 -78.1375 221° Southwest 426 490 38,000  Level Washington Center
Fri 07:25:45 AM 38.6906 -78.2356 220° Southwest 426 490 38,000  Level Washington Center
Fri 07:26:46 AM 38.6006 -78.3386 222° Southwest 431 496 38,000  Level Washington Center
Fri 07:27:44 AM 38.5106 -78.4386 221° Southwest 431 496 38,000  Level Washington Center
Fri 07:28:45 AM 38.4186 -78.5386 220° Southwest 431 496 38,000  Level Washington Center
Fri 07:29:46 AM 38.3242 -78.6433 221° Southwest 436 502 38,000  Level Washington Center
Fri 07:30:46 AM 38.2253 -78.7608 223° Southwest 443 510 38,000  Level Washington Center
Fri 07:31:44 AM 38.1308 -78.8625 220° Southwest 449 517 38,000  Level Washington Center
Fri 07:32:45 AM 38.0319 -78.9689 220° Southwest 454 522 38,000  Level Washington Center
Fri 07:33:46 AM 37.9458 -79.0625 221° Southwest 454 522 38,000  Level Washington Center
Fri 07:34:43 AM 37.8547 -79.1767 225° Southwest 459 528 38,000  Level Washington Center
Fri 07:35:44 AM 37.7700 -79.2933 227° Southwest 459 528 38,000  Level Washington Center
Fri 07:36:45 AM 37.6739 -79.4253 227° Southwest 470 541 38,000  Level Washington Center
Fri 07:37:45 AM 37.5869 -79.5414 227° Southwest 470 541 38,000  Level Washington Center
Fri 07:38:46 AM 37.4994 -79.6625 228° Southwest 470 541 38,000  Level Washington Center
Fri 07:39:44 AM 37.4181 -79.7783 229° Southwest 488 562 38,000  Level Washington Center
Fri 07:40:44 AM 37.3306 -79.8964 227° Southwest 481 554 38,000  Level Washington Center
Fri 07:42:33 AM 37.1614 -80.1194 226° Southwest 469 540 38,000  Level Atlanta Center
Fri 07:43:33 AM 37.0714 -80.2408 227° Southwest 469 540 38,000  Level Atlanta Center
Fri 07:44:33 AM 36.9933 -80.3461 227° Southwest 469 540 38,000  Level Atlanta Center
Fri 07:45:33 AM 36.9050 -80.4644 227° Southwest 469 540 38,000  Level Atlanta Center
Fri 07:46:33 AM 36.8167 -80.5797 226° Southwest 469 540 38,000  Level Atlanta Center
Fri 07:47:33 AM 36.7200 -80.7108 227° Southwest 464 534 38,000  Level Atlanta Center
Fri 07:48:33 AM 36.6336 -80.8258 227° Southwest 451 519 38,000  Level Atlanta Center
Fri 07:49:33 AM 36.5489 -80.9350 226° Southwest 456 525 38,000  Level Atlanta Center
Fri 07:50:33 AM 36.4642 -81.0519 228° Southwest 456 525 38,000  Level Atlanta Center
Fri 07:51:33 AM 36.3792 -81.1633 227° Southwest 456 525 38,000  Level Atlanta Center
Fri 07:52:33 AM 36.2942 -81.2772 227° Southwest 456 525 38,000  Level Atlanta Center
Fri 07:53:33 AM 36.2092 -81.3908 227° Southwest 456 525 38,000  Level Atlanta Center
Fri 07:54:33 AM 36.1239 -81.4989 226° Southwest 451 519 38,000  Level Atlanta Center
Fri 07:55:33 AM 36.0406 -81.6094 227° Southwest 451 519 38,000 -150 Level Atlanta Center
Fri 07:56:33 AM 35.9531 -81.7197 226° Southwest 451 519 37,700 -550 Descending Atlanta Center
Fri 07:57:33 AM 35.8775 -81.8194 227° Southwest 451 519 36,900 -850 Descending Atlanta Center
Fri 07:58:33 AM 35.7919 -81.9292 226° Southwest 446 513 36,000 -650 Descending Atlanta Center
Fri 07:59:33 AM 35.7061 -82.0389 226° Southwest 446 513 35,600 -500 Descending Atlanta Center
Fri 08:00:33 AM 35.6203 -82.1458 225° Southwest 440 506 35,000 -300 Descending Atlanta Center
Fri 08:01:33 AM 35.5342 -82.2575 227° Southwest 440 506 35,000 -250 Level Atlanta Center
Fri 08:02:33 AM 35.4481 -82.3664 226° Southwest 440 506 34,500 -550 Descending Atlanta Center
Fri 08:03:33 AM 35.3600 -82.4778 226° Southwest 445 512 33,900 -600 Descending Atlanta Center
Fri 08:04:33 AM 35.2675 -82.5914 225° Southwest 445 512 33,300 -600 Descending Atlanta Center
Fri 08:05:33 AM 35.1811 -82.6969 225° Southwest 434 499 32,700 -600 Descending Atlanta Center
Fri 08:06:33 AM 35.0967 -82.8025 226° Southwest 429 494 32,100 -600 Descending Atlanta Center
Fri 08:07:33 AM 35.0119 -82.9103 226° Southwest 434 499 31,500 -700 Descending Atlanta Center
Fri 08:08:33 AM 34.9294 -83.0103 225° Southwest 434 499 30,700 -950 Descending Atlanta Center
Fri 08:09:33 AM 34.8447 -83.1125 225° Southwest 428 493 29,600 -950 Descending Atlanta Center
Fri 08:10:33 AM 34.7722 -83.1967 224° Southwest 417 480 28,800 -950 Descending Atlanta Center
Fri 08:11:33 AM 34.6978 -83.2961 228° Southwest 406 467 27,700 -1,050 Descending Atlanta Center
Fri 08:12:33 AM 34.6086 -83.3750 216° Southwest 394 453 26,700 -950 Descending Atlanta Center
Fri 08:13:33 AM 34.5192 -83.4564 217° Southwest 399 459 25,800 -2,150 Descending Atlanta Center
Fri 08:14:33 AM 34.4214 -83.5453 217° Southwest 426 490 22,400 -3,350 Descending Atlanta Center
Fri 08:15:33 AM 34.3217 -83.6339 216° Southwest 449 517 19,100 -2,900 Descending Atlanta Center
Fri 08:16:33 AM 34.2197 -83.7222 216° Southwest 436 502 16,600 -1,950 Descending Atlanta Center
Fri 08:17:33 AM 34.1383 -83.7978 218° Southwest 399 459 15,200 -1,300 Descending Atlanta Center
Fri 08:18:33 AM 34.0633 -83.8708 219° Southwest 367 422 14,000 -750 Descending Atlanta Center
Fri 08:19:33 AM 33.9967 -83.9436 222° Southwest 336 387 13,700 -650 Descending Atlanta Center
Fri 08:20:33 AM 33.9217 -84.0036 214° Southwest 331 381 12,700 -895 Descending Atlanta Center
Fri 08:21:27 AM 33.8500 -84.0500 208° Southwest 317 365 12,000 -368 Descending Atlanta TRACON
Fri 08:22:27 AM 33.7833 -84.1167 220° Southwest 309 356 12,000  Level Atlanta TRACON
Fri 08:23:27 AM 33.7500 -84.1833 239° Southwest 258 297 12,000  Level Atlanta TRACON
Fri 08:24:27 AM 33.7333 -84.2833 259° West 260 299 12,000 -526 Level Atlanta TRACON
Fri 08:25:21 AM 33.7333 -84.3500 270° West 261 300 11,000 -1,211 Descending Atlanta TRACON
Fri 08:26:21 AM 33.7333 -84.4333 270° West 259 298 9,700 -1,368 Descending Atlanta TRACON
Fri 08:27:15 AM 33.7333 -84.5167 270° West 251 289 8,400 -1,474 Descending Atlanta TRACON
Fri 08:28:15 AM 33.7333 -84.6000 270° West 249 287 6,900 -1,368 Descending Atlanta TRACON
Fri 08:29:09 AM 33.7333 -84.6667 270° West 245 282 5,800 -1,000 Descending Atlanta TRACON
Fri 08:30:09 AM 33.7333 -84.7500 270° West 236 272 5,000 -400 Descending Atlanta TRACON
Fri 08:31:09 AM 33.7333 -84.8167 270° West 214 246 5,000  Level Atlanta TRACON
Fri 08:32:09 AM 33.7167 -84.8833 253° West 221 254 5,000  Level Atlanta TRACON
Fri 08:33:09 AM 33.6667 -84.9000 196° South 210 242 5,000  Level Atlanta TRACON
Fri 08:34:03 AM 33.6500 -84.8500 112° Southeast 190 219 5,000  Level Atlanta TRACON
Fri 08:35:03 AM 33.6500 -84.7833 90° East 190 219 5,000  Level Atlanta TRACON
Fri 08:36:03 AM 33.6500 -84.7167 90° East 189 217 5,000 -400 Level Atlanta TRACON
Fri 08:37:03 AM 33.6500 -84.6500 90° East 193 222 4,200 -842 Descending Atlanta TRACON
Fri 08:37:57 AM 33.6500 -84.6000 90° East 186 214 3,400 -842 Descending Atlanta TRACON
Fri 08:38:57 AM 33.6500 -84.5333 90° East 173 199 2,600 -750 Descending Atlanta TRACON
Fri 08:39:57 AM 33.6500 -84.5000 90° East 124 143 1,900 -684 Descending Atlanta TRACON
Fri 08:40:51 AM 33.6500 -84.4500 90° East 123 142 1,300 -667 Descending Atlanta TRACON

Login

Don't have an account? Register now (free) for customized features, flight alerts, and more!